Time;durP1;ratioP1;P1;durP2;ratioP2;P2;SDS_P1;SDS_P2;PMS_P1;PMS_P2;Temp;Humidity;BMP_temperature;BMP_pressure;BME280_temperature;BME280_humidity;BME280_pressure;Samples;Min_cycle;Max_cycle;Signal;HPM_P1;HPM_P2
2022/11/09 00:00:25;;;;;;;11.32;10.45;;;9.90;99.90;;;;;;4226929;28;20235;-83
2022/11/09 00:02:45;;;;;;;13.15;12.15;;;9.90;99.90;;;;;;4226516;28;20069;-83
2022/11/09 00:05:05;;;;;;;13.68;12.50;;;9.90;99.90;;;;;;4228834;28;20259;-84
2022/11/09 00:07:25;;;;;;;12.18;11.13;;;10.00;99.90;;;;;;4218160;28;20382;-83
2022/11/09 00:09:44;;;;;;;14.63;13.32;;;10.00;99.90;;;;;;4224093;28;20042;-83
2022/11/09 00:12:06;;;;;;;14.50;13.40;;;9.90;99.90;;;;;;4233319;28;20093;-83
2022/11/09 00:14:26;;;;;;;15.85;14.48;;;9.90;99.90;;;;;;4229762;28;20043;-84
2022/11/09 00:16:46;;;;;;;16.00;14.45;;;9.90;99.90;;;;;;4215955;28;20081;-83
2022/11/09 00:19:05;;;;;;;15.23;13.82;;;9.90;99.90;;;;;;4230151;28;20140;-84
2022/11/09 00:21:25;;;;;;;14.13;12.57;;;9.90;99.90;;;;;;4232519;28;20059;-83
2022/11/09 00:23:46;;;;;;;12.57;11.38;;;9.90;99.90;;;;;;4216829;28;20063;-83
2022/11/09 00:26:08;;;;;;;14.02;12.68;;;9.90;99.90;;;;;;4230498;28;20238;-84
2022/11/09 00:28:28;;;;;;;13.80;12.53;;;10.00;99.90;;;;;;4229646;28;20043;-83
2022/11/09 00:30:48;;;;;;;12.93;11.82;;;10.00;99.90;;;;;;4231402;28;20319;-83
2022/11/09 00:33:22;;;;;;;15.55;14.10;;;10.00;99.90;;;;;;4226948;28;20365;-83
2022/11/09 00:35:42;;;;;;;12.38;11.55;;;9.90;99.90;;;;;;4230912;28;20085;-83
2022/11/09 00:38:02;;;;;;;13.02;12.13;;;9.80;99.90;;;;;;4215570;28;20047;-83
2022/11/09 00:40:23;;;;;;;12.65;11.93;;;9.70;99.90;;;;;;4223709;28;20047;-83
2022/11/09 00:42:42;;;;;;;13.07;12.13;;;9.60;99.90;;;;;;4219637;28;20038;-83
2022/11/09 00:45:02;;;;;;;12.45;11.55;;;9.60;99.90;;;;;;4231205;28;20085;-83
2022/11/09 00:47:22;;;;;;;11.75;10.75;;;9.60;99.90;;;;;;4217081;28;20042;-83
2022/11/09 00:53:00;;;;;;;11.13;10.18;;;9.80;99.90;;;;;;4230777;28;20074;-83
2022/11/09 00:55:20;;;;;;;9.93;9.20;;;9.80;99.90;;;;;;4227271;28;20082;-83
2022/11/09 00:57:39;;;;;;;9.88;9.15;;;9.80;99.90;;;;;;4230648;28;20051;-83
2022/11/09 00:59:59;;;;;;;12.00;10.95;;;9.80;99.90;;;;;;4219233;28;20047;-83
2022/11/09 01:02:19;;;;;;;11.02;10.32;;;9.80;99.90;;;;;;4230931;28;20080;-83
2022/11/09 01:04:39;;;;;;;10.95;10.25;;;9.80;99.90;;;;;;4229544;28;20269;-83
2022/11/09 01:06:59;;;;;;;11.05;10.15;;;9.80;99.90;;;;;;4229380;28;20050;-83
2022/11/09 01:09:19;;;;;;;11.27;10.30;;;9.70;99.90;;;;;;4231333;28;20043;-83
2022/11/09 01:11:38;;;;;;;12.10;11.25;;;9.70;99.90;;;;;;4230653;28;20239;-83
2022/11/09 01:13:59;;;;;;;12.07;11.18;;;9.70;99.90;;;;;;4226962;28;20047;-83
2022/11/09 01:16:21;;;;;;;13.00;11.98;;;9.60;99.90;;;;;;4218559;28;20043;-83
2022/11/09 01:18:41;;;;;;;14.43;13.32;;;9.60;99.90;;;;;;4225075;28;20054;-83
2022/11/09 01:21:02;;;;;;;14.05;13.07;;;9.60;99.90;;;;;;4227419;28;20066;-84
2022/11/09 01:23:22;;;;;;;12.88;12.00;;;9.60;99.90;;;;;;4227604;28;20059;-83
2022/11/09 01:25:42;;;;;;;10.20;9.63;;;9.60;99.90;;;;;;4231376;28;20092;-84
2022/11/09 01:28:03;;;;;;;11.63;10.82;;;9.60;99.90;;;;;;4233796;28;20392;-83
2022/11/09 01:30:23;;;;;;;12.07;11.27;;;9.60;99.90;;;;;;4236811;28;20061;-83
2022/11/09 01:32:42;;;;;;;13.13;12.02;;;9.50;99.90;;;;;;4236089;28;20329;-83
2022/11/09 01:35:02;;;;;;;11.75;10.57;;;9.50;99.90;;;;;;4219306;28;20059;-83
2022/11/09 01:37:22;;;;;;;14.05;12.60;;;9.60;99.90;;;;;;4227079;28;20038;-83
2022/11/09 01:39:41;;;;;;;14.35;12.98;;;9.60;99.90;;;;;;4226324;28;20077;-83
2022/11/09 01:42:01;;;;;;;12.45;11.52;;;9.50;99.90;;;;;;4217085;28;20078;-83
2022/11/09 01:44:21;;;;;;;10.73;10.00;;;9.50;99.90;;;;;;4220306;28;20450;-84
2022/11/09 01:46:55;;;;;;;10.98;10.18;;;9.60;99.90;;;;;;4215397;28;20086;-84
2022/11/09 01:49:22;;;;;;;10.02;9.35;;;9.60;99.90;;;;;;4233917;28;20038;-84
2022/11/09 01:51:50;;;;;;;11.77;10.77;;;9.60;99.90;;;;;;4215245;28;20039;-83
2022/11/09 01:54:20;;;;;;;10.40;9.40;;;9.60;99.90;;;;;;4229985;28;20264;-83
2022/11/09 01:56:40;;;;;;;9.45;8.73;;;9.60;99.90;;;;;;4221143;28;20051;-83
2022/11/09 01:59:13;;;;;;;7.80;7.40;;;9.60;99.90;;;;;;4234915;28;20059;-83
2022/11/09 02:01:34;;;;;;;7.85;7.22;;;9.70;99.90;;;;;;4216547;28;20075;-83
2022/11/09 02:04:00;;;;;;;9.45;8.70;;;9.70;99.90;;;;;;4218327;28;20047;-83
2022/11/09 02:06:22;;;;;;;7.53;7.13;;;9.70;99.90;;;;;;4222982;28;20085;-83
2022/11/09 02:08:43;;;;;;;7.38;6.97;;;9.70;99.90;;;;;;4213930;28;20087;-83
2022/11/09 02:11:12;;;;;;;7.40;7.20;;;9.80;99.90;;;;;;4230792;28;20070;-83
2022/11/09 02:13:33;;;;;;;8.23;7.55;;;9.70;99.90;;;;;;4214199;28;20334;-84
2022/11/09 02:15:53;;;;;;;8.48;7.93;;;9.70;99.90;;;;;;4227037;28;20047;-83
2022/11/09 02:18:14;;;;;;;9.98;9.57;;;9.70;99.90;;;;;;4226265;28;20403;-83
2022/11/09 02:20:49;;;;;;;10.93;10.10;;;9.70;99.90;;;;;;4231420;28;20042;-83
2022/11/09 02:23:09;;;;;;;11.55;10.60;;;9.70;99.90;;;;;;4227650;28;20055;-83
2022/11/09 02:25:28;;;;;;;10.80;9.80;;;9.60;99.90;;;;;;4234170;28;20085;-83
2022/11/09 02:27:49;;;;;;;12.43;11.25;;;9.60;99.90;;;;;;4233526;28;20051;-84
2022/11/09 02:30:12;;;;;;;14.60;10.30;;;9.70;99.90;;;;;;4219031;28;20067;-83
2022/11/09 02:32:31;;;;;;;11.00;10.10;;;9.60;99.90;;;;;;4228150;28;20043;-83
2022/11/09 02:34:51;;;;;;;10.68;10.05;;;9.70;99.90;;;;;;4235468;28;20113;-83
2022/11/09 02:37:11;;;;;;;10.80;10.18;;;9.70;99.90;;;;;;4235524;28;20145;-83
2022/11/09 02:39:32;;;;;;;11.00;10.02;;;9.80;99.90;;;;;;4231668;28;20084;-84
2022/11/09 02:41:56;;;;;;;10.73;9.93;;;9.70;99.90;;;;;;4231009;28;20039;-83
2022/11/09 02:44:18;;;;;;;9.85;9.38;;;9.60;99.90;;;;;;4227923;28;20062;-83
2022/11/09 02:46:38;;;;;;;9.73;8.85;;;9.70;99.90;;;;;;4224485;28;20055;-83
2022/11/09 02:48:58;;;;;;;9.65;9.02;;;9.70;99.90;;;;;;4231208;28;20081;-84
2022/11/09 02:51:18;;;;;;;9.95;9.38;;;9.70;99.90;;;;;;4234264;28;20042;-84
2022/11/09 02:53:38;;;;;;;10.75;9.93;;;9.70;99.90;;;;;;4225133;28;20051;-83
2022/11/09 02:55:58;;;;;;;9.80;9.30;;;9.70;99.90;;;;;;4233447;28;20054;-83
2022/11/09 02:58:18;;;;;;;9.20;8.43;;;9.70;99.90;;;;;;4224441;28;20062;-83
2022/11/09 03:00:37;;;;;;;9.45;8.90;;;9.80;99.90;;;;;;4233924;28;20085;-84
2022/11/09 03:02:57;;;;;;;10.38;9.63;;;9.70;99.90;;;;;;4233370;28;20070;-83
2022/11/09 03:05:17;;;;;;;10.55;9.80;;;9.70;99.90;;;;;;4224894;28;20082;-84
2022/11/09 03:07:36;;;;;;;12.10;11.23;;;9.60;99.90;;;;;;4221531;28;20051;-83
2022/11/09 03:09:56;;;;;;;11.60;10.63;;;9.60;99.90;;;;;;4236248;28;20097;-83
2022/11/09 03:12:27;;;;;;;10.43;9.82;;;9.60;99.90;;;;;;4229264;28;20047;-83
2022/11/09 03:14:47;;;;;;;10.90;10.20;;;9.70;99.90;;;;;;4234560;28;20140;-83
2022/11/09 03:17:07;;;;;;;10.95;9.93;;;9.70;99.90;;;;;;4233045;28;20035;-84
2022/11/09 03:19:27;;;;;;;10.95;10.30;;;9.70;99.90;;;;;;4216401;28;20066;-84
2022/11/09 03:21:47;;;;;;;11.00;10.30;;;9.70;99.90;;;;;;4212699;28;20401;-84
2022/11/09 03:24:06;;;;;;;11.50;10.68;;;9.70;99.90;;;;;;4227702;28;20055;-83
2022/11/09 03:26:26;;;;;;;11.90;11.00;;;9.60;99.90;;;;;;4221737;28;20086;-83
2022/11/09 03:28:46;;;;;;;11.02;10.32;;;9.50;99.90;;;;;;4231753;28;20302;-83
2022/11/09 03:31:07;;;;;;;11.45;10.52;;;9.50;99.90;;;;;;4231950;28;20035;-83
2022/11/09 03:33:26;;;;;;;11.88;10.68;;;9.50;99.90;;;;;;4215980;28;20094;-83
2022/11/09 03:35:46;;;;;;;12.23;11.32;;;9.50;99.90;;;;;;4233761;28;20078;-83
2022/11/09 03:38:06;;;;;;;13.93;12.65;;;9.50;99.90;;;;;;4219739;28;20420;-83
2022/11/09 03:40:26;;;;;;;10.82;10.43;;;9.50;99.90;;;;;;4234241;28;20143;-83
2022/11/09 03:42:47;;;;;;;11.07;10.35;;;9.50;99.90;;;;;;4228579;28;20042;-83
2022/11/09 03:45:08;;;;;;;11.27;10.38;;;9.50;99.90;;;;;;4227334;28;20066;-83
2022/11/09 03:47:27;;;;;;;11.02;10.25;;;9.50;99.90;;;;;;4226669;28;20043;-83
2022/11/09 03:49:47;;;;;;;12.23;11.32;;;9.30;99.90;;;;;;4214788;28;20058;-83
2022/11/09 03:52:07;;;;;;;11.15;10.38;;;9.30;99.90;;;;;;4226729;28;20043;-83
2022/11/09 03:54:26;;;;;;;11.23;10.43;;;9.30;99.90;;;;;;4229822;28;20104;-83
2022/11/09 03:56:46;;;;;;;10.55;9.73;;;9.20;99.90;;;;;;4231301;28;20035;-84
2022/11/09 03:59:06;;;;;;;9.30;9.00;;;9.20;99.90;;;;;;4228466;28;20077;-83
2022/11/09 04:01:25;;;;;;;10.05;9.43;;;9.30;99.90;;;;;;4218995;28;20450;-84
2022/11/09 04:03:46;;;;;;;10.25;9.75;;;9.40;99.90;;;;;;4213768;28;20071;-83
2022/11/09 04:06:05;;;;;;;9.05;8.38;;;9.30;99.90;;;;;;4216281;28;20043;-83
2022/11/09 04:08:25;;;;;;;9.15;8.32;;;9.30;99.90;;;;;;4215408;28;20170;-83
2022/11/09 04:10:45;;;;;;;9.10;8.70;;;9.40;99.90;;;;;;4215489;28;20047;-83
2022/11/09 04:13:04;;;;;;;9.13;8.63;;;9.40;99.90;;;;;;4231071;28;20081;-84
2022/11/09 04:15:24;;;;;;;9.82;9.13;;;9.50;99.90;;;;;;4233396;28;20231;-84
2022/11/09 04:17:44;;;;;;;9.98;9.25;;;9.50;99.90;;;;;;4221524;28;20040;-83
2022/11/09 04:20:05;;;;;;;10.15;9.40;;;9.50;99.90;;;;;;4217074;28;20047;-83
2022/11/09 04:22:25;;;;;;;9.13;8.27;;;9.60;99.90;;;;;;4220836;28;20075;-83
2022/11/09 04:24:45;;;;;;;10.63;9.73;;;9.60;99.90;;;;;;4217763;28;20066;-83
2022/11/09 04:27:05;;;;;;;10.65;9.95;;;9.60;99.90;;;;;;4233347;28;20231;-83
2022/11/09 04:29:25;;;;;;;11.57;10.50;;;9.50;99.90;;;;;;4233562;28;20108;-83
2022/11/09 04:31:47;;;;;;;10.98;10.07;;;9.40;99.90;;;;;;4232232;28;20119;-83
2022/11/09 04:34:07;;;;;;;10.98;10.15;;;9.40;99.90;;;;;;4229099;28;20047;-83
2022/11/09 04:36:27;;;;;;;10.40;9.75;;;9.30;99.90;;;;;;4227206;28;20043;-84
2022/11/09 04:38:47;;;;;;;11.32;9.90;;;9.30;99.90;;;;;;4215450;28;20070;-83
2022/11/09 04:41:07;;;;;;;9.68;9.38;;;9.30;99.90;;;;;;4212420;28;20071;-83
2022/11/09 04:43:27;;;;;;;8.70;8.23;;;9.30;99.90;;;;;;4225938;28;20085;-83
2022/11/09 04:45:47;;;;;;;9.18;8.57;;;9.40;99.90;;;;;;4212553;28;20048;-83
2022/11/09 04:48:09;;;;;;;7.72;7.40;;;9.40;99.90;;;;;;4222172;28;20248;-83
2022/11/09 04:50:29;;;;;;;8.55;7.88;;;9.40;99.90;;;;;;4233933;28;20148;-84
2022/11/09 04:52:48;;;;;;;9.05;8.40;;;9.40;99.90;;;;;;4216907;28;20074;-83
2022/11/09 04:55:08;;;;;;;7.70;7.40;;;9.40;99.90;;;;;;4228164;28;20047;-83
2022/11/09 04:57:28;;;;;;;7.78;7.35;;;9.40;99.90;;;;;;4213731;28;20119;-83
2022/11/09 04:59:47;;;;;;;8.98;8.20;;;9.40;99.90;;;;;;4222499;28;20042;-83
2022/11/09 05:02:07;;;;;;;8.68;8.18;;;9.50;99.90;;;;;;4222581;28;20103;-83
2022/11/09 05:04:26;;;;;;;9.75;8.80;;;9.50;99.90;;;;;;4232408;28;20054;-83
2022/11/09 05:06:46;;;;;;;7.97;7.47;;;9.60;99.90;;;;;;4233519;28;20043;-84
2022/11/09 05:09:07;;;;;;;7.50;7.10;;;9.50;99.90;;;;;;4231087;28;20229;-83
2022/11/09 05:11:26;;;;;;;8.57;8.05;;;9.50;99.90;;;;;;4228459;28;20046;-83
2022/11/09 05:13:47;;;;;;;9.07;8.45;;;9.60;99.90;;;;;;4229011;28;20077;-83
2022/11/09 05:16:07;;;;;;;9.05;8.65;;;9.60;99.90;;;;;;4230029;28;20155;-83
2022/11/09 05:18:26;;;;;;;10.73;10.02;;;9.60;99.90;;;;;;4223138;28;20086;-83
2022/11/09 05:20:46;;;;;;;11.65;10.52;;;9.60;99.90;;;;;;4229365;28;20396;-83
2022/11/09 05:25:44;;;;;;;9.88;9.48;;;9.70;99.90;;;;;;4228133;28;20054;-83
2022/11/09 05:28:04;;;;;;;9.38;8.98;;;9.70;99.90;;;;;;4234543;28;20050;-83
2022/11/09 05:30:24;;;;;;;9.27;8.73;;;9.80;99.90;;;;;;4228391;28;20059;-83
2022/11/09 05:32:44;;;;;;;9.18;8.52;;;9.80;99.90;;;;;;4217909;28;20127;-83
2022/11/09 05:35:04;;;;;;;8.70;8.15;;;9.80;99.90;;;;;;4231218;28;20125;-83
2022/11/09 05:37:24;;;;;;;9.50;8.90;;;9.80;99.90;;;;;;4223939;28;20115;-83
2022/11/09 05:39:44;;;;;;;9.55;8.95;;;9.80;99.90;;;;;;4223909;28;20080;-83
2022/11/09 05:42:04;;;;;;;8.98;8.48;;;9.80;99.90;;;;;;4225594;28;20081;-83
2022/11/09 05:44:24;;;;;;;9.95;9.18;;;9.70;99.90;;;;;;4214756;28;20320;-83
2022/11/09 05:46:44;;;;;;;8.88;8.45;;;9.70;99.90;;;;;;4227254;28;20128;-84
2022/11/09 05:49:04;;;;;;;9.07;8.43;;;9.60;99.90;;;;;;4227779;28;20050;-83
2022/11/09 05:51:23;;;;;;;9.27;8.68;;;9.70;99.90;;;;;;4228514;28;20262;-83
2022/11/09 05:53:43;;;;;;;9.38;8.90;;;9.70;99.90;;;;;;4221793;28;20061;-83
2022/11/09 05:56:09;;;;;;;7.65;7.10;;;9.70;99.90;;;;;;4222473;28;20059;-83
2022/11/09 05:58:29;;;;;;;9.35;8.77;;;9.70;99.90;;;;;;4215406;28;20394;-83
2022/11/09 06:00:49;;;;;;;8.20;7.68;;;9.70;99.90;;;;;;4216977;28;20262;-84
2022/11/09 06:03:10;;;;;;;9.50;8.88;;;9.60;99.90;;;;;;4234905;28;20043;-83
2022/11/09 06:05:35;;;;;;;11.18;10.38;;;9.60;99.90;;;;;;4230534;28;20089;-83
2022/11/09 06:07:54;;;;;;;7.97;7.57;;;9.60;99.90;;;;;;4234428;28;20286;-83
2022/11/09 06:10:14;;;;;;;8.20;7.70;;;9.60;99.90;;;;;;4230444;28;20085;-83
2022/11/09 06:12:34;;;;;;;14.25;13.02;;;9.60;99.90;;;;;;4232131;28;20051;-83
2022/11/09 06:14:54;;;;;;;13.40;12.38;;;9.60;99.90;;;;;;4231056;28;20051;-83
2022/11/09 06:17:14;;;;;;;10.05;9.52;;;9.50;99.90;;;;;;4233288;28;20265;-83
2022/11/09 06:19:34;;;;;;;11.50;10.40;;;9.60;99.90;;;;;;4216374;28;20086;-83
2022/11/09 06:21:54;;;;;;;18.60;15.18;;;9.60;99.90;;;;;;4231514;28;20045;-83
2022/11/09 06:24:14;;;;;;;13.95;12.50;;;9.60;99.90;;;;;;4233250;28;20365;-83
2022/11/09 06:26:34;;;;;;;13.35;12.35;;;9.60;99.90;;;;;;4227795;28;20050;-83
2022/11/09 06:28:54;;;;;;;11.35;10.23;;;9.60;99.90;;;;;;4229824;28;20102;-86
2022/11/09 06:31:15;;;;;;;8.32;8.00;;;9.70;99.90;;;;;;4230946;28;20055;-86
2022/11/09 06:33:36;;;;;;;10.00;9.50;;;9.70;99.90;;;;;;4226577;28;20155;-86
2022/11/09 06:35:57;;;;;;;11.00;10.23;;;9.70;99.90;;;;;;4215709;28;20138;-86
2022/11/09 06:38:16;;;;;;;19.67;17.90;;;9.60;99.90;;;;;;4213131;28;20055;-86
2022/11/09 06:40:36;;;;;;;8.32;7.93;;;9.60;99.90;;;;;;4221471;28;20115;-86
2022/11/09 06:42:58;;;;;;;8.75;8.45;;;9.60;99.90;;;;;;4234016;28;20223;-85
2022/11/09 06:45:17;;;;;;;8.57;8.25;;;9.50;99.90;;;;;;4229382;28;20074;-85
2022/11/09 06:47:37;;;;;;;8.25;7.95;;;9.60;99.90;;;;;;4236014;28;20081;-86
2022/11/09 06:49:58;;;;;;;6.72;6.53;;;9.60;99.90;;;;;;4231581;28;20092;-86
2022/11/09 06:52:17;;;;;;;7.43;6.90;;;9.60;99.90;;;;;;4220029;28;20371;-86
2022/11/09 06:54:37;;;;;;;6.22;5.95;;;9.70;99.90;;;;;;4224462;28;20051;-86
2022/11/09 06:56:57;;;;;;;7.75;7.30;;;9.70;99.90;;;;;;4223970;28;20103;-86
2022/11/09 06:59:17;;;;;;;10.10;7.40;;;9.70;99.90;;;;;;4224784;28;20077;-85
2022/11/09 07:01:36;;;;;;;8.57;8.18;;;9.70;99.90;;;;;;4231787;28;20054;-85
2022/11/09 07:03:56;;;;;;;8.32;7.72;;;9.70;99.90;;;;;;4232509;28;20066;-85
2022/11/09 07:06:16;;;;;;;8.95;8.15;;;9.80;99.90;;;;;;4232369;28;20050;-85
2022/11/09 07:08:36;;;;;;;12.15;11.25;;;9.80;99.90;;;;;;4234332;28;20365;-85
2022/11/09 07:11:03;;;;;;;12.45;11.65;;;9.80;99.90;;;;;;4224270;28;20428;-85
2022/11/09 07:13:23;;;;;;;10.88;10.27;;;9.80;99.90;;;;;;4223925;28;20044;-85
2022/11/09 07:15:43;;;;;;;11.30;10.50;;;9.90;99.90;;;;;;4235595;28;20413;-85
2022/11/09 07:18:05;;;;;;;9.57;9.07;;;9.90;99.90;;;;;;4233408;28;20058;-85
2022/11/09 07:20:25;;;;;;;8.02;7.57;;;10.00;99.90;;;;;;4218370;28;20107;-85
2022/11/09 07:22:48;;;;;;;8.40;7.88;;;10.00;99.90;;;;;;4214325;28;20043;-85
2022/11/09 07:25:09;;;;;;;;;;;10.10;99.90;;;;;;4229847;28;20104;-85
2022/11/09 07:27:29;;;;;;;7.30;6.90;;;10.20;99.90;;;;;;4224698;28;19923;-85
2022/11/09 07:29:48;;;;;;;11.35;10.30;;;10.20;99.90;;;;;;4211666;28;20047;-85
2022/11/09 07:32:09;;;;;;;10.60;9.95;;;10.20;99.90;;;;;;4235217;28;20035;-85
2022/11/09 07:34:29;;;;;;;10.13;9.77;;;10.30;99.90;;;;;;4225217;28;20075;-85
2022/11/09 07:36:48;;;;;;;10.10;9.35;;;10.30;99.90;;;;;;4224494;28;20126;-85
2022/11/09 07:39:08;;;;;;;9.55;8.73;;;10.30;99.90;;;;;;4217953;28;20048;-85
2022/11/09 07:41:27;;;;;;;9.70;8.82;;;10.30;99.90;;;;;;4227878;28;20043;-85
2022/11/09 07:43:54;;;;;;;8.73;8.32;;;10.30;99.90;;;;;;4232813;28;20046;-85
2022/11/09 07:46:14;;;;;;;10.07;9.27;;;10.30;99.90;;;;;;4234061;28;20042;-85
2022/11/09 07:48:35;;;;;;;9.60;9.10;;;10.40;99.90;;;;;;4217468;28;20047;-85
2022/11/09 07:50:56;;;;;;;9.88;9.05;;;10.40;99.90;;;;;;4224417;28;20039;-85
2022/11/09 07:53:15;;;;;;;9.63;8.85;;;10.40;99.90;;;;;;4224572;28;20078;-85
2022/11/09 07:55:36;;;;;;;11.35;10.48;;;10.40;99.90;;;;;;4230230;28;20089;-85
2022/11/09 07:58:00;;;;;;;10.43;9.57;;;10.40;99.90;;;;;;4218477;28;20059;-85
2022/11/09 08:00:20;;;;;;;10.55;9.95;;;10.40;99.90;;;;;;4233351;28;20063;-85
2022/11/09 08:02:47;;;;;;;10.23;9.70;;;10.50;99.90;;;;;;4218840;28;20043;-85
2022/11/09 08:05:07;;;;;;;10.50;9.68;;;10.50;99.90;;;;;;4216339;28;20039;-85
2022/11/09 08:07:27;;;;;;;9.73;9.27;;;10.60;99.90;;;;;;4215726;28;20104;-85
2022/11/09 08:09:46;;;;;;;9.63;9.18;;;10.60;99.90;;;;;;4229734;28;20299;-85
2022/11/09 08:12:06;;;;;;;10.70;9.88;;;10.60;99.90;;;;;;4223773;28;20066;-85
2022/11/09 08:14:25;;;;;;;10.05;9.43;;;10.70;99.90;;;;;;4230230;28;20392;-85
2022/11/09 08:16:46;;;;;;;10.20;9.32;;;10.80;99.90;;;;;;4222719;28;20093;-85
2022/11/09 08:19:07;;;;;;;9.98;9.38;;;10.80;99.90;;;;;;4226945;28;20046;-85
2022/11/09 08:21:27;;;;;;;9.05;8.50;;;10.80;99.90;;;;;;4212187;28;20040;-85
2022/11/09 08:23:49;;;;;;;8.43;7.78;;;10.90;99.90;;;;;;4215294;28;20079;-85
2022/11/09 08:26:10;;;;;;;7.55;6.97;;;11.00;99.90;;;;;;4226411;28;20436;-85
2022/11/09 08:28:30;;;;;;;8.07;7.70;;;11.00;99.90;;;;;;4229682;28;20081;-84
2022/11/09 08:30:56;;;;;;;8.38;7.85;;;11.00;99.90;;;;;;4226044;28;20362;-84
2022/11/09 08:33:16;;;;;;;7.72;7.18;;;11.00;99.90;;;;;;4221335;28;20039;-85
2022/11/09 08:35:36;;;;;;;8.10;7.35;;;11.00;99.90;;;;;;4233769;28;20043;-85
2022/11/09 08:38:00;;;;;;;6.90;6.68;;;11.00;99.90;;;;;;4229875;28;20043;-84
2022/11/09 08:40:24;;;;;;;7.57;7.20;;;11.20;99.90;;;;;;4231196;28;20034;-85
2022/11/09 08:42:44;;;;;;;6.72;6.45;;;11.30;99.90;;;;;;4232552;28;20146;-84
2022/11/09 08:45:04;;;;;;;5.97;5.65;;;11.30;99.90;;;;;;4218629;28;20063;-84
2022/11/09 08:47:24;;;;;;;6.00;5.60;;;11.40;99.90;;;;;;4228453;28;20085;-84
2022/11/09 08:49:46;;;;;;;4.47;4.38;;;11.50;99.90;;;;;;4226849;28;20047;-85
2022/11/09 08:52:05;;;;;;;5.90;5.70;;;11.50;99.90;;;;;;4234035;28;20070;-84
2022/11/09 08:54:25;;;;;;;4.78;4.68;;;11.60;99.90;;;;;;4229152;28;20046;-84
2022/11/09 08:56:45;;;;;;;4.70;4.38;;;11.60;99.90;;;;;;4223274;28;20039;-85
2022/11/09 08:59:05;;;;;;;5.30;4.95;;;11.70;99.90;;;;;;4222661;28;20050;-84
2022/11/09 09:01:24;;;;;;;5.38;4.90;;;11.70;99.90;;;;;;4225979;28;20153;-84
2022/11/09 09:03:45;;;;;;;4.70;4.50;;;11.80;99.90;;;;;;4215966;28;20043;-84
2022/11/09 09:06:06;;;;;;;7.05;6.75;;;11.90;99.90;;;;;;4210809;28;20075;-85
2022/11/09 09:08:26;;;;;;;5.75;5.35;;;12.00;99.90;;;;;;4217778;28;20242;-84
2022/11/09 09:10:46;;;;;;;9.85;9.30;;;12.10;99.90;;;;;;4230257;28;20089;-84
2022/11/09 09:13:06;;;;;;;5.60;5.30;;;12.20;99.90;;;;;;4230500;28;20054;-84
2022/11/09 09:15:26;;;;;;;6.20;6.07;;;12.30;99.90;;;;;;4224619;28;20046;-84
2022/11/09 09:17:45;;;;;;;5.78;5.07;;;12.40;99.90;;;;;;4231132;28;20069;-84
2022/11/09 09:20:06;;;;;;;7.38;6.82;;;12.50;99.90;;;;;;4228327;28;20051;-84
2022/11/09 09:22:26;;;;;;;4.72;4.50;;;12.60;99.90;;;;;;4213230;28;20078;-84
2022/11/09 09:24:46;;;;;;;3.47;3.28;;;12.60;99.90;;;;;;4222624;28;20047;-84
2022/11/09 09:27:06;;;;;;;4.50;4.20;;;12.50;99.90;;;;;;4223833;28;20062;-84
2022/11/09 09:29:25;;;;;;;3.47;2.95;;;12.70;99.90;;;;;;4230905;28;20059;-84
2022/11/09 09:31:45;;;;;;;3.00;2.80;;;12.80;99.90;;;;;;4226659;28;20043;-84
2022/11/09 09:34:05;;;;;;;3.10;3.00;;;12.70;99.90;;;;;;4223939;28;20054;-84
2022/11/09 09:36:25;;;;;;;2.83;2.72;;;12.80;99.90;;;;;;4216882;28;20055;-84
2022/11/09 09:38:45;;;;;;;4.50;4.20;;;12.80;99.90;;;;;;4229515;28;20047;-84
2022/11/09 09:41:06;;;;;;;3.22;3.05;;;12.80;99.90;;;;;;4222562;28;20125;-84
2022/11/09 09:43:32;;;;;;;3.28;2.45;;;12.80;99.90;;;;;;4236757;28;20083;-84
2022/11/09 09:45:53;;;;;;;4.15;3.92;;;12.80;99.90;;;;;;4223571;28;20292;-84
2022/11/09 09:48:42;;;;;;;4.90;4.60;;;12.90;99.90;;;;;;4230030;28;20580;-84
2022/11/09 09:51:26;;;;;;;4.18;3.88;;;13.10;99.90;;;;;;4232634;28;20386;-84
2022/11/09 09:53:58;;;;;;;4.68;4.28;;;13.20;99.90;;;;;;4231212;28;20049;-84
2022/11/09 09:56:29;;;;;;;3.95;3.85;;;13.30;99.90;;;;;;4224707;28;20370;-84
2022/11/09 09:58:56;;;;;;;4.47;4.15;;;13.20;99.90;;;;;;4212146;28;20065;-84
2022/11/09 10:01:19;;;;;;;3.65;3.55;;;13.50;99.90;;;;;;4225920;28;20410;-84
2022/11/09 10:03:38;;;;;;;4.93;4.72;;;13.70;99.90;;;;;;4224842;28;20043;-84
2022/11/09 10:06:31;;;;;;;4.97;4.68;;;13.60;99.90;;;;;;4228359;28;20133;-84
2022/11/09 10:08:54;;;;;;;5.13;4.07;;;13.60;99.90;;;;;;4214091;28;20082;-84
2022/11/09 10:11:19;;;;;;;4.85;4.50;;;13.70;99.90;;;;;;4213701;28;20235;-84
2022/11/09 10:14:03;;;;;;;5.57;4.85;;;13.80;99.90;;;;;;4229184;28;20086;-84
2022/11/09 10:16:31;;;;;;;4.40;4.00;;;13.90;99.90;;;;;;4213362;28;20072;-84
2022/11/09 10:19:29;;;;;;;2.95;2.75;;;14.00;99.90;;;;;;4229238;28;20090;-85
2022/11/09 10:21:52;;;;;;;4.35;3.92;;;14.20;99.90;;;;;;4224001;28;20051;-84
2022/11/09 10:24:30;;;;;;;4.88;4.47;;;14.30;99.90;;;;;;4227079;28;20067;-85
2022/11/09 10:26:53;;;;;;;4.75;4.40;;;14.40;99.90;;;;;;4227018;28;20047;-85
2022/11/09 10:29:24;;;;;;;6.95;6.32;;;14.50;99.90;;;;;;4216542;28;20111;-84
2022/11/09 10:31:46;;;;;;;5.30;3.58;;;14.60;99.90;;;;;;4228420;28;20073;-84
2022/11/09 10:34:34;;;;;;;2.85;2.65;;;14.50;99.90;;;;;;4233403;28;20050;-85
2022/11/09 10:37:04;;;;;;;2.65;2.55;;;14.60;99.90;;;;;;4228617;28;20396;-85
2022/11/09 10:39:30;;;;;;;4.18;3.90;;;14.70;99.90;;;;;;4213606;28;20048;-85
2022/11/09 10:41:51;;;;;;;6.32;1.88;;;14.80;99.90;;;;;;4220903;28;20128;-84
2022/11/09 10:44:17;;;;;;;3.85;2.50;;;14.70;99.90;;;;;;4226210;28;20081;-85
2022/11/09 10:47:08;;;;;;;2.75;2.58;;;14.80;99.90;;;;;;4235714;28;20051;-85
2022/11/09 10:49:29;;;;;;;4.28;4.18;;;14.70;99.90;;;;;;4232166;28;20104;-84
2022/11/09 10:51:49;;;;;;;3.13;2.38;;;14.80;99.90;;;;;;4235039;28;20107;-85
2022/11/09 10:54:34;;;;;;;2.88;2.05;;;14.80;99.90;;;;;;4220609;28;20295;-85
2022/11/09 10:57:10;;;;;;;1.63;1.45;;;14.90;99.90;;;;;;4230973;28;20062;-85
2022/11/09 10:59:42;;;;;;;5.28;1.88;;;15.00;99.90;;;;;;4235297;28;20121;-85
2022/11/09 11:02:22;;;;;;;2.08;1.98;;;15.00;99.90;;;;;;4215892;28;20386;-86
2022/11/09 11:04:41;;;;;;;2.33;2.22;;;14.90;99.90;;;;;;4229380;28;20077;-86
2022/11/09 11:07:14;;;;;;;4.82;1.75;;;14.90;99.90;;;;;;4221704;28;20043;-86
2022/11/09 11:09:40;;;;;;;2.00;1.85;;;14.90;99.90;;;;;;4217436;28;20137;-85
2022/11/09 11:12:15;;;;;;;2.30;2.10;;;14.90;99.90;;;;;;4234864;28;20112;-86
2022/11/09 11:14:41;;;;;;;2.63;2.42;;;14.90;99.90;;;;;;4235283;28;20099;-86
2022/11/09 11:17:01;;;;;;;2.30;2.10;;;15.00;99.90;;;;;;4226428;28;20039;-85
2022/11/09 11:19:33;;;;;;;2.00;1.90;;;15.00;99.90;;;;;;4230821;28;20324;-85
2022/11/09 11:22:26;;;;;;;3.20;2.78;;;15.00;99.90;;;;;;4224222;28;20043;-85
2022/11/09 11:25:01;;;;;;;3.10;2.25;;;14.90;99.90;;;;;;4155946;28;20225;-85
2022/11/09 11:27:43;;;;;;;7.20;6.80;;;15.00;99.90;;;;;;4156157;28;20123;-85
2022/11/09 11:30:15;;;;;;;2.78;2.03;;;15.10;99.90;;;;;;4158642;28;20121;-85
2022/11/09 11:32:35;;;;;;;3.10;1.75;;;15.10;99.90;;;;;;4145011;28;20053;-85
2022/11/09 11:34:54;;;;;;;1.73;1.63;;;15.00;99.90;;;;;;4160620;28;20362;-85
2022/11/09 11:37:40;;;;;;;2.85;1.60;;;15.00;99.90;;;;;;4157015;28;20044;-85
2022/11/09 11:40:07;;;;;;;2.20;1.60;;;15.00;99.90;;;;;;4158478;28;20367;-85
2022/11/09 11:43:14;;;;;;;1.83;1.73;;;15.00;99.90;;;;;;4158663;28;20137;-85
2022/11/09 11:45:45;;;;;;;5.35;2.10;;;15.10;99.90;;;;;;4112621;28;20057;-85
2022/11/09 11:48:30;;;;;;;2.20;2.00;;;15.10;99.90;;;;;;4108201;28;20082;-85
2022/11/09 11:51:00;;;;;;;1.55;1.45;;;15.10;99.90;;;;;;4102100;28;20058;-84
2022/11/09 11:53:44;;;;;;;1.88;1.83;;;15.00;99.90;;;;;;4108281;28;20108;-85
2022/11/09 11:56:26;;;;;;;3.80;3.60;;;15.00;99.90;;;;;;4107615;28;20377;-85
2022/11/09 11:59:21;;;;;;;4.03;3.55;;;14.90;99.90;;;;;;4108948;28;20071;-85
2022/11/09 12:01:55;;;;;;;3.15;2.95;;;14.90;99.90;;;;;;4158026;28;20149;-85
2022/11/09 12:04:34;;;;;;;4.63;4.32;;;15.00;99.90;;;;;;4172597;28;20088;-85
2022/11/09 12:07:09;;;;;;;5.13;4.90;;;15.20;99.90;;;;;;4158500;28;20399;-85
2022/11/09 12:09:28;;;;;;;7.15;6.75;;;14.90;99.90;;;;;;4157594;28;20161;-85
2022/11/09 12:12:07;;;;;;;5.55;5.10;;;15.00;99.90;;;;;;4158648;28;20056;-85
2022/11/09 12:14:50;;;;;;;1.75;1.55;;;15.40;99.90;;;;;;4158495;28;20045;-85
2022/11/09 12:17:40;;;;;;;1.60;1.48;;;15.70;99.90;;;;;;4158359;28;20080;-85
2022/11/09 12:20:16;;;;;;;1.30;1.20;;;15.90;99.90;;;;;;4215677;28;20047;-85
2022/11/09 12:22:58;;;;;;;2.25;1.88;;;16.20;99.90;;;;;;4233473;28;20145;-85
2022/11/09 12:25:48;;;;;;;1.48;1.38;;;16.60;99.90;;;;;;4218027;28;20088;-84
2022/11/09 12:28:26;;;;;;;2.10;1.10;;;16.80;99.90;;;;;;4226316;28;20410;-85
2022/11/09 12:30:58;;;;;;;2.03;1.92;;;17.10;99.90;;;;;;4228658;28;20354;-85